createdAt,value
2024-05-09T00:00:54.157Z,19.82
2024-05-09T00:03:24.585Z,19.82
2024-05-09T00:05:54.930Z,19.78
2024-05-09T00:08:25.948Z,19.78
2024-05-09T00:10:56.385Z,19.73
2024-05-09T00:13:29.644Z,19.69
2024-05-09T00:16:00.089Z,19.65
2024-05-09T00:18:30.566Z,19.59
2024-05-09T00:21:01.234Z,19.55
2024-05-09T00:23:32.725Z,19.51
2024-05-09T00:26:03.224Z,19.47
2024-05-09T00:28:36.210Z,19.39
2024-05-09T00:31:06.689Z,19.42
2024-05-09T00:33:37.139Z,19.31
2024-05-09T00:36:08.254Z,19.29
2024-05-09T00:38:38.622Z,19.24
2024-05-09T00:41:08.958Z,19.21
2024-05-09T00:43:41.936Z,19.14
2024-05-09T00:46:13.218Z,19.08
2024-05-09T00:48:44.164Z,19.10
2024-05-09T00:51:14.841Z,19.05
2024-05-09T00:53:45.707Z,19.02
2024-05-09T00:56:16.391Z,18.97
2024-05-09T00:58:54.335Z,18.97
2024-05-09T01:01:27.678Z,18.92
2024-05-09T01:03:58.409Z,18.91
2024-05-09T01:06:28.795Z,18.87
2024-05-09T01:08:59.132Z,18.86
2024-05-09T01:11:36.615Z,18.84
2024-05-09T01:14:09.686Z,18.85
2024-05-09T01:16:42.143Z,18.84
2024-05-09T01:19:25.941Z,18.80
2024-05-09T01:21:56.403Z,18.80
2024-05-09T01:24:29.470Z,18.75
2024-05-09T01:26:59.789Z,18.75
2024-05-09T01:29:30.133Z,18.72
2024-05-09T01:32:01.053Z,18.67
2024-05-09T01:34:31.404Z,18.63
2024-05-09T01:37:01.734Z,18.58
2024-05-09T01:39:35.245Z,18.56
2024-05-09T01:42:05.657Z,18.52
2024-05-09T01:44:39.005Z,18.48
2024-05-09T01:47:09.508Z,18.45
2024-05-09T01:53:40.970Z,18.42
2024-05-09T01:56:13.967Z,18.38
2024-05-09T01:58:44.378Z,18.35
2024-05-09T02:01:14.709Z,18.33
2024-05-09T02:03:47.813Z,18.35
2024-05-09T02:06:18.320Z,18.30
2024-05-09T02:08:48.729Z,18.28
2024-05-09T02:11:26.023Z,18.27
2024-05-09T02:13:56.355Z,18.26
2024-05-09T02:16:26.647Z,18.23
2024-05-09T02:18:57.018Z,18.24
2024-05-09T02:21:36.742Z,18.22
2024-05-09T02:24:07.450Z,18.19
2024-05-09T02:26:40.394Z,18.18
2024-05-09T02:29:10.782Z,18.17
2024-05-09T02:31:41.127Z,18.14
2024-05-09T02:34:11.739Z,18.18
2024-05-09T02:36:42.211Z,18.14
2024-05-09T02:39:10.006Z,18.13
2024-05-09T02:41:42.930Z,18.10
2024-05-09T02:44:10.678Z,18.09
2024-05-09T02:46:40.953Z,18.07
2024-05-09T02:49:08.746Z,18.08
2024-05-09T02:51:39.175Z,18.07
2024-05-09T02:54:07.799Z,18.05
2024-05-09T02:56:38.163Z,18.05
2024-05-09T02:59:08.506Z,18.02
2024-05-09T03:01:40.305Z,18.04
2024-05-09T03:04:08.154Z,18.02
2024-05-09T03:06:43.014Z,17.99
2024-05-09T03:09:10.711Z,17.97
2024-05-09T03:11:41.169Z,17.96
2024-05-09T03:14:15.719Z,17.94
2024-05-09T03:16:45.746Z,17.93
2024-05-09T03:19:13.539Z,17.92
2024-05-09T03:21:43.964Z,17.91
2024-05-09T03:24:11.928Z,17.88
2024-05-09T03:26:42.241Z,17.87
2024-05-09T03:29:12.624Z,17.87
2024-05-09T03:31:43.005Z,17.86
2024-05-09T03:34:13.455Z,17.83
2024-05-09T03:36:44.147Z,17.81
2024-05-09T03:39:14.739Z,17.82
2024-05-09T03:41:45.035Z,17.82
2024-05-09T03:44:18.155Z,17.81
2024-05-09T03:46:45.868Z,17.80
2024-05-09T03:49:17.996Z,17.81
2024-05-09T03:51:45.745Z,17.80
2024-05-09T03:54:16.030Z,17.80
2024-05-09T03:56:44.496Z,17.82
2024-05-09T03:59:17.523Z,17.81
2024-05-09T04:01:45.471Z,17.80
2024-05-09T04:04:15.935Z,17.80
2024-05-09T04:06:43.598Z,17.78
2024-05-09T04:09:13.871Z,17.80
2024-05-09T04:11:41.745Z,17.77
2024-05-09T04:14:12.200Z,17.76
2024-05-09T04:16:42.710Z,17.75
2024-05-09T04:19:13.130Z,17.74
2024-05-09T04:21:40.873Z,17.73
2024-05-09T04:24:12.616Z,17.74
2024-05-09T04:26:40.337Z,17.74
2024-05-09T04:29:11.080Z,17.73
2024-05-09T04:31:38.802Z,17.72
2024-05-09T04:34:11.821Z,17.71
2024-05-09T04:36:41.712Z,17.70
2024-05-09T04:39:13.554Z,17.71
2024-05-09T04:41:41.283Z,17.69
2024-05-09T04:44:11.684Z,17.70
2024-05-09T04:46:39.868Z,17.71
2024-05-09T04:49:13.105Z,17.72
2024-05-09T04:51:41.097Z,17.69
2024-05-09T04:54:22.138Z,17.66
2024-05-09T04:56:57.593Z,17.65
2024-05-09T04:59:28.216Z,17.67
2024-05-09T05:01:56.095Z,17.69
2024-05-09T05:04:29.901Z,17.70
2024-05-09T05:06:59.739Z,17.71
2024-05-09T05:09:32.415Z,17.70
2024-05-09T05:12:02.187Z,17.70
2024-05-09T05:14:32.765Z,17.71
2024-05-09T05:17:00.580Z,17.71
2024-05-09T05:19:33.662Z,17.73
2024-05-09T05:22:01.343Z,17.73
2024-05-09T05:24:31.686Z,17.73
2024-05-09T05:26:59.383Z,17.73
2024-05-09T05:29:30.007Z,17.73
2024-05-09T05:31:57.895Z,17.75
2024-05-09T05:34:28.348Z,17.73
2024-05-09T05:36:58.757Z,17.73
2024-05-09T05:39:29.024Z,17.72
2024-05-09T05:41:59.339Z,17.70
2024-05-09T05:44:27.171Z,17.72
2024-05-09T05:46:57.474Z,17.72
2024-05-09T05:49:25.294Z,17.72
2024-05-09T05:51:55.704Z,17.71
2024-05-09T05:54:26.259Z,17.72
2024-05-09T05:56:56.583Z,17.74
2024-05-09T05:59:24.322Z,17.74
2024-05-09T06:01:54.619Z,17.74
2024-05-09T06:04:23.591Z,17.73
2024-05-09T06:06:53.888Z,17.75
2024-05-09T06:09:21.620Z,17.76
2024-05-09T06:11:54.795Z,17.79
2024-05-09T06:14:22.728Z,17.78
2024-05-09T06:16:54.694Z,17.77
2024-05-09T06:19:24.978Z,17.79
2024-05-09T06:21:55.310Z,17.80
2024-05-09T06:24:22.995Z,17.80
2024-05-09T06:26:55.938Z,17.82
2024-05-09T06:29:33.364Z,17.84
2024-05-09T06:32:03.760Z,17.83
2024-05-09T06:34:31.747Z,17.87
2024-05-09T06:37:02.040Z,17.87
2024-05-09T06:39:29.784Z,17.90
2024-05-09T06:42:02.806Z,17.89
2024-05-09T06:44:30.681Z,17.93
2024-05-09T06:47:01.769Z,17.93
2024-05-09T06:49:31.731Z,17.98
2024-05-09T06:52:02.207Z,18.03
2024-05-09T06:54:30.261Z,18.05
2024-05-09T06:57:03.313Z,18.05
2024-05-09T06:59:31.243Z,18.07
2024-05-09T07:02:01.828Z,18.05
2024-05-09T07:04:30.141Z,18.03
2024-05-09T07:07:00.618Z,18.03
2024-05-09T07:09:28.460Z,18.03
2024-05-09T07:12:00.108Z,18.03
2024-05-09T07:14:30.555Z,18.08
2024-05-09T07:17:01.308Z,18.10
2024-05-09T07:19:29.492Z,18.12
2024-05-09T07:22:00.214Z,18.08
2024-05-09T07:24:27.974Z,18.10
2024-05-09T07:26:58.511Z,18.11
2024-05-09T07:29:26.329Z,18.12
2024-05-09T07:31:59.398Z,18.13
2024-05-09T07:34:27.313Z,18.16
2024-05-09T07:36:57.669Z,18.15
2024-05-09T07:39:25.382Z,18.18
2024-05-09T07:41:55.716Z,18.19
2024-05-09T07:44:23.534Z,18.22
2024-05-09T07:48:13.733Z,18.25
2024-05-09T07:51:32.157Z,18.28
2024-05-09T07:53:33.188Z,18.30
2024-05-09T07:55:22.180Z,18.33
2024-05-09T07:57:52.579Z,18.41
2024-05-09T08:00:27.061Z,18.43
2024-05-09T08:03:01.500Z,18.41
2024-05-09T08:05:34.891Z,18.42
2024-05-09T08:08:02.690Z,18.43
2024-05-09T08:10:35.347Z,18.45
2024-05-09T08:13:03.240Z,18.47
2024-05-09T08:15:33.629Z,18.50
2024-05-09T08:18:01.816Z,18.51
2024-05-09T08:20:35.500Z,18.53
2024-05-09T08:23:03.651Z,18.55
2024-05-09T08:25:33.913Z,18.57
2024-05-09T08:28:01.703Z,18.60
2024-05-09T08:30:36.837Z,18.60
2024-05-09T08:33:07.176Z,18.62
2024-05-09T08:35:40.787Z,18.63
2024-05-09T08:38:09.250Z,18.64
2024-05-09T08:40:39.713Z,18.66
2024-05-09T08:43:08.511Z,18.68
2024-05-09T08:45:42.609Z,18.71
2024-05-09T08:48:13.345Z,18.70
2024-05-09T08:50:46.853Z,18.75
2024-05-09T08:53:15.200Z,18.74
2024-05-09T08:55:47.169Z,18.77
2024-05-09T08:58:16.815Z,18.77
2024-05-09T09:00:48.228Z,18.77
2024-05-09T09:03:19.514Z,18.80
2024-05-09T09:06:00.436Z,18.83
2024-05-09T09:08:28.249Z,18.83
2024-05-09T09:11:00.984Z,18.85
2024-05-09T09:13:28.860Z,18.87
2024-05-09T09:16:04.253Z,18.92
2024-05-09T09:18:33.160Z,19.01
2024-05-09T09:21:07.421Z,19.01
2024-05-09T09:23:35.108Z,18.96
2024-05-09T09:26:05.419Z,19.00
2024-05-09T09:28:36.807Z,19.09
2024-05-09T09:31:07.833Z,19.15
2024-05-09T09:33:36.344Z,19.19
2024-05-09T09:36:13.668Z,19.23
2024-05-09T09:38:42.289Z,19.26
2024-05-09T09:41:13.362Z,19.29
2024-05-09T09:43:42.932Z,19.33
2024-05-09T09:46:16.533Z,19.34
2024-05-09T09:48:44.875Z,19.36
2024-05-09T09:51:18.456Z,19.37
2024-05-09T09:53:47.761Z,19.41
2024-05-09T09:56:20.362Z,19.41
2024-05-09T09:58:49.032Z,19.41
2024-05-09T10:01:27.799Z,19.40
2024-05-09T10:03:55.694Z,19.39
2024-05-09T10:06:30.276Z,19.42
2024-05-09T10:08:59.561Z,19.44
2024-05-09T10:11:39.528Z,19.47
2024-05-09T10:14:09.770Z,19.48
2024-05-09T10:16:46.702Z,19.49
2024-05-09T10:19:24.356Z,19.49
2024-05-09T10:22:03.749Z,19.51
2024-05-09T10:24:46.656Z,19.52
2024-05-09T10:27:17.266Z,19.53
2024-05-09T10:29:54.309Z,19.55
2024-05-09T10:32:24.757Z,19.47
2024-05-09T10:35:06.820Z,19.45
2024-05-09T10:37:40.104Z,19.44
2024-05-09T10:40:14.239Z,19.41
2024-05-09T10:42:52.217Z,19.45
2024-05-09T10:45:20.157Z,19.50
2024-05-09T10:47:51.476Z,19.53
2024-05-09T10:50:25.710Z,19.58
2024-05-09T10:53:01.856Z,19.63
2024-05-09T10:55:29.644Z,19.63
2024-05-09T10:57:59.988Z,19.64
2024-05-09T11:00:35.689Z,19.62
2024-05-09T11:03:07.508Z,19.53
2024-05-09T11:05:36.387Z,19.56
2024-05-09T11:08:10.391Z,19.61
2024-05-09T11:10:38.875Z,19.67
2024-05-09T11:13:09.276Z,19.68
2024-05-09T11:15:40.324Z,19.65
2024-05-09T11:18:11.568Z,19.68
2024-05-09T11:20:39.360Z,19.59
2024-05-09T11:23:20.438Z,19.61
2024-05-09T11:25:51.265Z,19.51
2024-05-09T11:28:21.995Z,19.44
2024-05-09T11:30:50.858Z,19.43
2024-05-09T11:33:22.286Z,19.51
2024-05-09T11:35:50.060Z,19.49
2024-05-09T11:38:23.060Z,19.53
2024-05-09T11:40:50.954Z,19.59
2024-05-09T11:43:21.385Z,19.64
2024-05-09T11:45:49.191Z,19.68
2024-05-09T11:48:20.097Z,19.66
2024-05-09T11:50:47.865Z,19.68
2024-05-09T11:53:18.231Z,19.71
2024-05-09T11:55:48.740Z,19.72
2024-05-09T11:58:21.439Z,19.73
2024-05-09T12:00:49.337Z,19.74
2024-05-09T12:03:19.712Z,19.77
2024-05-09T12:05:47.498Z,19.77
2024-05-09T12:08:17.957Z,19.80
2024-05-09T12:10:49.374Z,19.79
2024-05-09T12:13:19.998Z,19.83
2024-05-09T12:15:47.848Z,19.88
2024-05-09T12:18:18.197Z,19.87
2024-05-09T12:20:45.971Z,19.87
2024-05-09T12:23:16.300Z,19.79
2024-05-09T12:25:44.694Z,19.73
2024-05-09T12:28:18.766Z,19.78
2024-05-09T12:30:46.714Z,19.81
2024-05-09T12:33:17.350Z,19.85
2024-05-09T12:35:47.337Z,19.86
2024-05-09T12:38:19.510Z,19.89
2024-05-09T12:40:48.739Z,19.88
2024-05-09T12:43:21.759Z,20.21
2024-05-09T12:45:49.615Z,20.50
2024-05-09T12:48:20.175Z,20.53
2024-05-09T12:50:48.204Z,20.60
2024-05-09T12:53:18.567Z,20.59
2024-05-09T12:55:53.581Z,20.53
2024-05-09T12:58:30.078Z,20.45
2024-05-09T13:00:57.901Z,20.47
2024-05-09T13:03:28.380Z,20.58
2024-05-09T13:05:56.125Z,20.63
2024-05-09T13:08:26.641Z,20.59
2024-05-09T13:10:54.438Z,20.68
2024-05-09T13:13:24.824Z,20.75
2024-05-09T13:15:55.236Z,20.76
2024-05-09T13:18:25.620Z,20.72
2024-05-09T13:20:53.286Z,20.50
2024-05-09T13:23:23.675Z,20.38
2024-05-09T13:25:51.375Z,20.51
2024-05-09T13:28:22.799Z,20.59
2024-05-09T13:30:50.530Z,20.60
2024-05-09T13:33:23.516Z,20.72
2024-05-09T13:35:51.400Z,20.79
2024-05-09T13:38:22.520Z,20.78
2024-05-09T13:40:50.798Z,20.78
2024-05-09T13:43:22.286Z,20.78
2024-05-09T13:45:50.315Z,20.87
2024-05-09T13:48:23.464Z,20.88
2024-05-09T13:50:51.232Z,20.85
2024-05-09T13:53:21.784Z,20.92
2024-05-09T13:55:49.927Z,20.94
2024-05-09T13:58:20.286Z,20.89
2024-05-09T14:00:49.221Z,20.92
2024-05-09T14:03:21.187Z,20.91
2024-05-09T14:05:52.313Z,21.00
2024-05-09T14:08:23.394Z,21.04
2024-05-09T14:10:51.362Z,21.08
2024-05-09T14:13:22.391Z,20.95
2024-05-09T14:15:50.489Z,21.08
2024-05-09T14:18:21.228Z,21.02
2024-05-09T14:20:51.579Z,20.98
2024-05-09T14:23:21.868Z,21.07
2024-05-09T14:25:52.183Z,21.03
2024-05-09T14:28:24.680Z,21.02
2024-05-09T14:30:52.580Z,21.01
2024-05-09T14:33:26.852Z,21.01
2024-05-09T14:35:57.355Z,21.00
2024-05-09T14:38:27.787Z,20.94
2024-05-09T14:40:55.751Z,20.90
2024-05-09T14:43:26.592Z,20.91
2024-05-09T14:45:56.141Z,20.95
2024-05-09T14:48:27.242Z,20.98
2024-05-09T14:50:57.582Z,20.98
2024-05-09T14:53:28.499Z,20.93
2024-05-09T14:55:56.381Z,20.88
2024-05-09T14:58:26.804Z,20.80
2024-05-09T15:00:54.681Z,20.92
2024-05-09T15:03:25.123Z,20.99
2024-05-09T15:05:53.343Z,20.98
2024-05-09T15:08:26.522Z,20.94
2024-05-09T15:10:54.532Z,20.98
2024-05-09T15:13:25.170Z,20.52
2024-05-09T15:15:53.143Z,20.51
2024-05-09T15:18:23.696Z,20.62
2024-05-09T15:20:51.553Z,20.49
2024-05-09T15:23:22.519Z,20.58
2024-05-09T15:25:53.108Z,20.58
2024-05-09T15:28:23.777Z,20.63
2024-05-09T15:30:51.494Z,20.67
2024-05-09T15:33:21.805Z,20.70
2024-05-09T15:35:51.204Z,20.74
2024-05-09T15:38:22.265Z,20.46
2024-05-09T15:40:52.819Z,19.96
2024-05-09T15:43:23.225Z,19.91
2024-05-09T15:45:51.076Z,19.90
2024-05-09T15:48:21.856Z,19.86
2024-05-09T15:50:49.654Z,19.82
2024-05-09T15:53:21.018Z,19.63
2024-05-09T15:55:48.671Z,19.58
2024-05-09T15:58:22.038Z,19.56
2024-05-09T16:00:52.058Z,19.52
2024-05-09T16:03:23.369Z,19.67
2024-05-09T16:05:51.964Z,19.70
2024-05-09T16:08:22.625Z,19.59
2024-05-09T16:10:51.206Z,19.57
2024-05-09T16:13:24.217Z,19.58
2024-05-09T16:15:52.139Z,19.47
2024-05-09T16:18:22.703Z,19.44
2024-05-09T16:20:50.946Z,19.41
2024-05-09T16:23:21.299Z,19.39
2024-05-09T16:25:49.027Z,19.39
2024-05-09T16:28:21.729Z,19.38
2024-05-09T16:30:54.084Z,19.36
2024-05-09T16:33:26.131Z,19.59
2024-05-09T16:35:54.290Z,19.67
2024-05-09T16:38:24.694Z,19.51
2024-05-09T16:40:52.627Z,19.37
2024-05-09T16:43:23.440Z,19.31
2024-05-09T16:45:54.086Z,19.31
2024-05-09T16:48:24.634Z,19.30
2024-05-09T16:50:53.099Z,19.26
2024-05-09T16:53:23.409Z,19.25
2024-05-09T16:55:51.161Z,19.24
2024-05-09T16:58:21.828Z,19.23
2024-05-09T17:00:50.969Z,19.22
2024-05-09T17:03:25.030Z,19.21
2024-05-09T17:05:52.960Z,19.21
2024-05-09T17:08:23.457Z,19.21
2024-05-09T17:10:51.304Z,19.21
2024-05-09T17:13:22.787Z,19.21
2024-05-09T17:15:53.441Z,19.20
2024-05-09T17:18:26.677Z,19.21
2024-05-09T17:20:55.059Z,19.21
2024-05-09T17:23:25.337Z,19.24
2024-05-09T17:25:52.993Z,19.23
2024-05-09T17:28:23.353Z,19.29
2024-05-09T17:30:51.110Z,19.46
2024-05-09T17:33:21.501Z,19.52
2024-05-09T17:35:52.004Z,19.50
2024-05-09T17:38:23.031Z,19.49
2024-05-09T17:40:52.037Z,19.48
2024-05-09T17:43:22.644Z,19.48
2024-05-09T17:45:53.090Z,19.46
2024-05-09T17:48:21.823Z,19.46
2024-05-09T17:50:54.811Z,19.45
2024-05-09T17:53:22.535Z,19.44
2024-05-09T17:55:53.962Z,19.44
2024-05-09T17:58:22.090Z,19.44
2024-05-09T18:00:52.588Z,19.42
2024-05-09T18:03:22.932Z,19.41
2024-05-09T18:05:56.082Z,19.41
2024-05-09T18:08:24.266Z,19.40
2024-05-09T18:10:55.562Z,19.39
2024-05-09T18:13:23.669Z,19.38
2024-05-09T18:15:54.118Z,19.38
2024-05-09T18:18:21.987Z,19.37
2024-05-09T18:20:55.002Z,19.35
2024-05-09T18:23:23.281Z,19.34
2024-05-09T18:25:54.833Z,19.33
2024-05-09T18:28:23.485Z,19.31
2024-05-09T18:30:53.948Z,19.24
2024-05-09T18:33:21.848Z,19.30
2024-05-09T18:35:54.847Z,19.45
2024-05-09T18:38:26.864Z,19.59
2024-05-09T18:40:57.534Z,19.70
2024-05-09T18:43:31.136Z,19.76
2024-05-09T18:46:06.396Z,19.79
2024-05-09T18:48:34.500Z,19.80
2024-05-09T18:51:14.729Z,19.85
2024-05-09T18:53:45.202Z,19.85
2024-05-09T18:56:12.990Z,19.84
2024-05-09T18:58:43.278Z,19.76
2024-05-09T19:01:11.354Z,19.64
2024-05-09T19:03:42.204Z,19.54
2024-05-09T19:06:12.774Z,19.47
2024-05-09T19:08:43.071Z,19.42
2024-05-09T19:11:10.739Z,19.39
2024-05-09T19:13:41.112Z,19.37
2024-05-09T19:16:08.900Z,19.34
2024-05-09T19:18:39.406Z,19.34
2024-05-09T19:21:07.331Z,19.32
2024-05-09T19:23:47.078Z,19.30
2024-05-09T19:26:19.977Z,19.28
2024-05-09T19:28:50.292Z,19.27
2024-05-09T19:31:18.047Z,19.26
2024-05-09T19:33:48.434Z,19.25
2024-05-09T19:36:19.356Z,19.24
2024-05-09T19:38:52.295Z,19.23
2024-05-09T19:41:20.013Z,19.23
2024-05-09T19:43:50.273Z,19.21
2024-05-09T19:46:18.155Z,19.19
2024-05-09T19:48:48.712Z,19.19
2024-05-09T19:51:16.670Z,19.18
2024-05-09T19:53:46.922Z,19.16
2024-05-09T19:56:19.917Z,19.16
2024-05-09T19:58:47.629Z,19.14
2024-05-09T20:01:17.990Z,19.14
2024-05-09T20:03:45.880Z,19.13
2024-05-09T20:06:16.487Z,19.14
2024-05-09T20:08:44.200Z,19.12
2024-05-09T20:11:14.553Z,19.11
2024-05-09T20:13:44.872Z,19.10
2024-05-09T20:16:15.303Z,19.09
2024-05-09T20:18:43.221Z,19.09
2024-05-09T20:21:13.735Z,19.09
2024-05-09T20:23:43.986Z,19.08
2024-05-09T20:26:11.698Z,19.07
2024-05-09T20:28:42.251Z,19.06
2024-05-09T20:31:19.567Z,19.06
2024-05-09T20:33:50.089Z,19.05
2024-05-09T20:36:17.781Z,19.06
2024-05-09T20:38:48.112Z,19.10
2024-05-09T20:41:15.768Z,19.21
2024-05-09T20:43:46.115Z,19.28
2024-05-09T20:46:17.403Z,19.36
2024-05-09T20:48:49.453Z,19.43
2024-05-09T20:51:17.198Z,19.47
2024-05-09T20:53:47.532Z,19.51
2024-05-09T20:56:15.219Z,19.54
2024-05-09T20:58:45.566Z,19.58
2024-05-09T21:01:13.409Z,19.62
2024-05-09T21:03:47.538Z,19.66
2024-05-09T21:06:15.310Z,19.67
2024-05-09T21:08:45.845Z,19.74
2024-05-09T21:11:13.533Z,19.73
2024-05-09T21:13:44.502Z,19.77
2024-05-09T21:16:14.510Z,19.77
2024-05-09T21:18:48.395Z,19.79
2024-05-09T21:21:16.188Z,19.79
2024-05-09T21:23:47.030Z,19.79
2024-05-09T21:26:15.335Z,19.86
2024-05-09T21:28:45.998Z,19.84
2024-05-09T21:31:13.797Z,19.83
2024-05-09T21:33:44.678Z,19.84
2024-05-09T21:36:15.143Z,19.85
2024-05-09T21:38:46.151Z,19.83
2024-05-09T21:41:14.002Z,19.84
2024-05-09T21:43:44.697Z,19.83
2024-05-09T21:46:12.659Z,19.84
2024-05-09T21:48:44.674Z,19.82
2024-05-09T21:51:18.086Z,19.82
2024-05-09T21:53:50.924Z,19.81
2024-05-09T21:56:18.803Z,19.81
2024-05-09T21:58:49.137Z,19.84
2024-05-09T22:01:17.183Z,19.84
2024-05-09T22:03:48.249Z,19.85
2024-05-09T22:06:18.776Z,19.84
2024-05-09T22:08:49.063Z,19.90
2024-05-09T22:11:16.820Z,19.89
2024-05-09T22:13:47.082Z,19.87
2024-05-09T22:16:14.726Z,19.87
2024-05-09T22:18:45.407Z,19.88
2024-05-09T22:21:13.364Z,19.82
2024-05-09T22:23:46.324Z,19.85
2024-05-09T22:26:14.016Z,19.83
2024-05-09T22:28:45.433Z,19.85
2024-05-09T22:31:13.117Z,19.86
2024-05-09T22:33:46.381Z,19.86
2024-05-09T22:36:18.172Z,19.83
2024-05-09T22:38:54.237Z,19.85
2024-05-09T22:41:24.443Z,19.87
2024-05-09T22:43:55.577Z,19.81
2024-05-09T22:46:23.476Z,19.81
2024-05-09T22:48:54.200Z,19.87
2024-05-09T22:51:22.023Z,19.91
2024-05-09T22:53:55.033Z,19.81
2024-05-09T22:56:27.140Z,19.84
2024-05-09T22:58:57.651Z,19.86
2024-05-09T23:01:26.898Z,19.89
2024-05-09T23:03:57.575Z,19.91
2024-05-09T23:06:25.585Z,19.95
2024-05-09T23:08:58.547Z,19.93
2024-05-09T23:11:26.345Z,19.96
2024-05-09T23:13:56.675Z,19.97
2024-05-09T23:16:24.405Z,19.96
2024-05-09T23:18:54.815Z,19.99
2024-05-09T23:21:23.928Z,20.04
2024-05-09T23:23:54.584Z,20.03
2024-05-09T23:26:25.322Z,20.03
2024-05-09T23:28:55.851Z,20.07
2024-05-09T23:31:23.592Z,20.05
2024-05-09T23:33:55.287Z,20.06
2024-05-09T23:36:23.170Z,20.08
2024-05-09T23:38:53.475Z,20.10
2024-05-09T23:41:21.665Z,20.09
2024-05-09T23:43:54.604Z,20.13
2024-05-09T23:46:22.554Z,20.09
2024-05-09T23:48:53.111Z,20.17
2024-05-09T23:51:21.930Z,20.15
2024-05-09T23:53:52.248Z,20.15
2024-05-09T23:56:21.575Z,20.14
2024-05-09T23:58:54.523Z,20.14
